Time;durP1;ratioP1;P1;durP2;ratioP2;P2;SDS_P1;SDS_P2;PMS_P1;PMS_P2;Temp;Humidity;BMP_temperature;BMP_pressure;BME280_temperature;BME280_humidity;BME280_pressure;Samples;Min_cycle;Max_cycle;Signal;HPM_P1;HPM_P2
2023/11/21 00:02:18;;;;;;;2.22;0.80;;;11.00;99.90;;;;;;5046980;28;20029;-76
2023/11/21 00:04:44;;;;;;;5.22;1.00;;;11.00;99.90;;;;;;5030390;28;20041;-76
2023/11/21 00:07:09;;;;;;;1.75;0.95;;;11.00;99.90;;;;;;5046866;28;20029;-77
2023/11/21 00:09:36;;;;;;;3.85;0.90;;;11.00;99.90;;;;;;5047820;28;20289;-77
2023/11/21 00:12:02;;;;;;;8.05;1.20;;;11.00;99.90;;;;;;5046810;28;20030;-76
2023/11/21 00:14:28;;;;;;;3.88;0.90;;;11.00;99.90;;;;;;5030050;28;20357;-76
2023/11/21 00:16:53;;;;;;;3.20;0.90;;;11.00;99.90;;;;;;5047578;28;20029;-76
2023/11/21 00:19:19;;;;;;;5.13;0.90;;;11.00;99.90;;;;;;5047590;28;20026;-77
2023/11/21 00:21:45;;;;;;;6.60;1.33;;;11.00;99.90;;;;;;5046604;28;20294;-77
2023/11/21 00:24:13;;;;;;;7.10;0.90;;;11.00;99.90;;;;;;5047618;28;20076;-76
2023/11/21 00:26:39;;;;;;;4.07;0.90;;;10.90;99.90;;;;;;5047321;28;20168;-76
2023/11/21 00:29:08;;;;;;;6.28;0.80;;;11.00;99.90;;;;;;5046682;28;20333;-77
2023/11/21 00:31:34;;;;;;;4.63;0.90;;;11.00;99.90;;;;;;5030119;28;20101;-76
2023/11/21 00:33:59;;;;;;;4.43;0.95;;;10.90;99.90;;;;;;5047371;28;20148;-76
2023/11/21 00:36:26;;;;;;;1.90;0.70;;;10.90;99.90;;;;;;5046221;28;20107;-76
2023/11/21 00:38:51;;;;;;;7.95;1.85;;;10.90;99.90;;;;;;5029580;28;20207;-78
2023/11/21 00:41:17;;;;;;;4.03;0.93;;;10.90;99.90;;;;;;5029684;28;20126;-77
2023/11/21 00:43:44;;;;;;;5.57;1.08;;;10.90;99.90;;;;;;5029917;28;20049;-77
2023/11/21 00:46:09;;;;;;;5.40;1.10;;;10.90;99.90;;;;;;5047239;28;20022;-76
2023/11/21 00:48:35;;;;;;;5.57;1.00;;;10.90;99.90;;;;;;5029424;28;20022;-77
2023/11/21 00:51:01;;;;;;;3.33;1.00;;;10.90;99.90;;;;;;5029356;28;20302;-76
2023/11/21 00:53:26;;;;;;;4.47;1.05;;;10.80;99.90;;;;;;5045920;28;20026;-76
2023/11/21 00:55:56;;;;;;;5.97;1.20;;;10.80;99.90;;;;;;5046036;28;20183;-77
2023/11/21 00:58:25;;;;;;;4.18;1.00;;;10.80;99.90;;;;;;5045941;28;20029;-79
2023/11/21 01:00:51;;;;;;;7.38;1.48;;;10.80;99.90;;;;;;5029742;28;20029;-77
2023/11/21 01:03:17;;;;;;;4.32;1.20;;;10.80;99.90;;;;;;5029224;28;20056;-76
2023/11/21 01:05:42;;;;;;;2.22;0.77;;;10.80;99.90;;;;;;5045929;28;20342;-76
2023/11/21 01:08:08;;;;;;;4.82;0.90;;;10.80;99.90;;;;;;5029084;28;20025;-77
2023/11/21 01:10:34;;;;;;;4.40;1.02;;;10.80;99.90;;;;;;5046539;28;20033;-76
2023/11/21 01:12:59;;;;;;;4.22;1.00;;;10.70;99.90;;;;;;5045571;28;20249;-77
2023/11/21 01:15:25;;;;;;;5.05;1.00;;;10.70;99.90;;;;;;5045631;28;20049;-77
2023/11/21 01:17:52;;;;;;;2.67;1.13;;;10.70;99.90;;;;;;5045578;28;20104;-77
2023/11/21 01:20:18;;;;;;;2.60;1.00;;;10.70;99.90;;;;;;5029143;28;20059;-77
2023/11/21 01:22:44;;;;;;;3.22;0.80;;;10.70;99.90;;;;;;5028925;28;20025;-77
2023/11/21 01:25:10;;;;;;;10.50;1.45;;;10.70;99.90;;;;;;5045267;28;20048;-77
2023/11/21 01:27:36;;;;;;;2.72;0.65;;;10.60;99.90;;;;;;5028860;28;20087;-77
2023/11/21 01:30:03;;;;;;;2.38;0.90;;;10.60;99.90;;;;;;5028974;28;20029;-76
2023/11/21 01:32:29;;;;;;;3.05;0.80;;;10.50;99.90;;;;;;5028809;28;20064;-77
2023/11/21 01:34:55;;;;;;;1.65;0.70;;;10.50;99.90;;;;;;5046099;28;20096;-76
2023/11/21 01:37:21;;;;;;;4.47;0.80;;;10.50;99.90;;;;;;5028870;28;20025;-76
2023/11/21 01:39:47;;;;;;;2.17;0.95;;;10.60;99.90;;;;;;5027998;28;20104;-76
2023/11/21 01:42:13;;;;;;;5.65;0.90;;;10.60;99.90;;;;;;5028520;28;20025;-76
2023/11/21 01:44:39;;;;;;;4.63;0.88;;;10.50;99.90;;;;;;5028582;28;20093;-76
2023/11/21 01:47:08;;;;;;;2.55;0.82;;;10.50;99.90;;;;;;5028633;28;20305;-77
2023/11/21 01:49:34;;;;;;;4.45;0.90;;;10.50;99.90;;;;;;5044781;28;20064;-77
2023/11/21 01:52:00;;;;;;;1.83;0.98;;;10.40;99.90;;;;;;5028531;28;20052;-76
2023/11/21 01:54:25;;;;;;;3.83;0.80;;;10.50;99.90;;;;;;5028459;28;20032;-77
2023/11/21 01:56:51;;;;;;;6.18;0.70;;;10.50;99.90;;;;;;5011967;28;20104;-77
2023/11/21 01:59:21;;;;;;;3.45;0.80;;;10.50;99.90;;;;;;5028307;28;20021;-77
2023/11/21 02:01:47;;;;;;;3.75;0.90;;;10.50;99.90;;;;;;5028406;28;20057;-76
2023/11/21 02:04:13;;;;;;;2.88;0.88;;;10.50;99.90;;;;;;5028185;28;20394;-76
2023/11/21 02:06:39;;;;;;;2.20;0.75;;;10.60;99.90;;;;;;5028393;28;20303;-76
2023/11/21 02:09:04;;;;;;;2.38;1.23;;;10.60;99.90;;;;;;5044723;28;20044;-76
2023/11/21 02:11:30;;;;;;;3.40;0.98;;;10.60;99.90;;;;;;5028306;28;20122;-77
2023/11/21 02:13:58;;;;;;;3.40;0.98;;;10.60;99.90;;;;;;5044607;28;20029;-76
2023/11/21 02:16:24;;;;;;;4.75;0.88;;;10.60;99.90;;;;;;5044550;28;20041;-76
2023/11/21 02:18:50;;;;;;;4.40;0.88;;;10.60;99.90;;;;;;5045333;28;20108;-76
2023/11/21 02:21:16;;;;;;;4.03;0.82;;;10.70;99.90;;;;;;5028011;28;20036;-76
2023/11/21 02:23:44;;;;;;;4.68;1.00;;;10.60;99.90;;;;;;5045594;28;20025;-76
2023/11/21 02:26:10;;;;;;;4.57;0.70;;;10.60;99.90;;;;;;5028362;28;20060;-76
2023/11/21 02:28:36;;;;;;;3.67;0.80;;;10.60;99.90;;;;;;5045236;28;20084;-76
2023/11/21 02:31:04;;;;;;;4.97;1.67;;;10.60;99.90;;;;;;5028138;28;20033;-76
2023/11/21 02:33:33;;;;;;;3.63;0.90;;;10.60;99.90;;;;;;5045357;28;20104;-76
2023/11/21 02:36:02;;;;;;;2.70;0.77;;;10.60;99.90;;;;;;5044462;28;20051;-76
2023/11/21 02:38:28;;;;;;;2.00;0.67;;;10.60;99.90;;;;;;5044313;28;20345;-76
2023/11/21 02:40:54;;;;;;;2.67;0.70;;;10.60;99.90;;;;;;5027872;28;20029;-76
2023/11/21 02:43:20;;;;;;;1.67;0.82;;;10.60;99.90;;;;;;5027999;28;20033;-76
2023/11/21 02:45:45;;;;;;;5.60;0.98;;;10.60;99.90;;;;;;5045321;28;20041;-76
2023/11/21 02:48:11;;;;;;;5.68;1.00;;;10.60;99.90;;;;;;5045330;28;20084;-76
2023/11/21 02:50:37;;;;;;;2.67;0.98;;;10.60;99.90;;;;;;5044902;28;20059;-76
2023/11/21 02:53:05;;;;;;;2.60;0.70;;;10.60;99.90;;;;;;5047661;28;20079;-76
2023/11/21 02:55:34;;;;;;;2.47;0.70;;;10.60;99.90;;;;;;5048118;28;20298;-76
2023/11/21 02:58:00;;;;;;;2.20;0.70;;;10.60;99.90;;;;;;5048279;28;20048;-76
2023/11/21 03:00:25;;;;;;;3.35;0.70;;;10.60;99.90;;;;;;5048896;28;20286;-76
2023/11/21 03:02:51;;;;;;;2.78;0.90;;;10.60;99.90;;;;;;5048949;28;20263;-76
2023/11/21 03:05:17;;;;;;;5.15;0.90;;;10.60;99.90;;;;;;5049021;28;20099;-76
2023/11/21 03:07:42;;;;;;;3.60;0.80;;;10.60;99.90;;;;;;5031459;28;20026;-76
2023/11/21 03:10:11;;;;;;;0.98;0.68;;;10.60;99.90;;;;;;5047983;28;20036;-76
2023/11/21 03:12:38;;;;;;;4.32;0.70;;;10.60;99.90;;;;;;5031866;28;20282;-76
2023/11/21 03:15:05;;;;;;;2.15;0.80;;;10.50;99.90;;;;;;5031214;28;20329;-76
2023/11/21 03:17:33;;;;;;;4.20;0.95;;;10.60;99.90;;;;;;5031571;28;20325;-76
2023/11/21 03:19:59;;;;;;;5.80;0.85;;;10.50;99.90;;;;;;5031643;28;20040;-76
2023/11/21 03:22:25;;;;;;;0.95;0.63;;;10.60;99.90;;;;;;5048486;28;20052;-76
2023/11/21 03:24:51;;;;;;;1.52;0.60;;;10.60;99.90;;;;;;5048526;28;20326;-76
2023/11/21 03:27:16;;;;;;;0.82;0.60;;;10.60;99.90;;;;;;5047406;28;20051;-76
2023/11/21 03:29:42;;;;;;;3.40;0.90;;;10.50;99.90;;;;;;5031119;28;20061;-76
2023/11/21 03:32:08;;;;;;;3.33;1.05;;;10.50;99.90;;;;;;5031149;28;20223;-75
2023/11/21 03:34:33;;;;;;;1.48;0.70;;;10.60;99.90;;;;;;5031068;28;20183;-76
2023/11/21 03:36:59;;;;;;;0.60;0.60;;;10.60;99.90;;;;;;5047429;28;20041;-76
2023/11/21 03:39:25;;;;;;;1.15;0.90;;;10.60;99.90;;;;;;5047340;28;20017;-76
2023/11/21 03:41:51;;;;;;;3.00;0.90;;;10.50;99.90;;;;;;5048358;28;20057;-76
2023/11/21 03:44:17;;;;;;;1.27;0.70;;;10.50;99.90;;;;;;5047359;28;20026;-76
2023/11/21 03:46:44;;;;;;;3.13;0.70;;;10.50;99.90;;;;;;5048103;28;20035;-76
2023/11/21 03:49:10;;;;;;;3.47;0.70;;;10.50;99.90;;;;;;5030706;28;20055;-76
2023/11/21 03:51:36;;;;;;;2.55;0.73;;;10.50;99.90;;;;;;5047235;28;20168;-76
2023/11/21 03:54:03;;;;;;;3.50;0.80;;;10.50;99.90;;;;;;5047203;28;20329;-76
2023/11/21 03:56:28;;;;;;;6.72;1.10;;;10.50;99.90;;;;;;5030694;28;20025;-76
2023/11/21 03:58:54;;;;;;;3.03;0.75;;;10.50;99.90;;;;;;5046903;28;20037;-76
2023/11/21 04:01:23;;;;;;;3.03;0.88;;;10.50;99.90;;;;;;5046958;28;20040;-76
2023/11/21 04:03:51;;;;;;;3.08;0.80;;;10.50;99.90;;;;;;5029622;28;20033;-76
2023/11/21 04:06:17;;;;;;;2.00;0.68;;;10.50;99.90;;;;;;5046802;28;20029;-76
2023/11/21 04:08:46;;;;;;;2.42;0.70;;;10.50;99.90;;;;;;5030447;28;20032;-76
2023/11/21 04:11:12;;;;;;;3.92;0.93;;;10.50;99.90;;;;;;5046848;28;20105;-76
2023/11/21 04:13:42;;;;;;;1.98;0.77;;;10.40;99.90;;;;;;5030442;28;20037;-76
2023/11/21 04:16:07;;;;;;;2.28;0.75;;;10.40;99.90;;;;;;5046813;28;20017;-76
2023/11/21 04:18:35;;;;;;;3.47;0.98;;;10.40;99.90;;;;;;5046616;28;20148;-76
2023/11/21 04:21:01;;;;;;;1.63;0.65;;;10.40;99.90;;;;;;5013771;28;20040;-76
2023/11/21 04:23:28;;;;;;;1.67;0.75;;;10.50;99.90;;;;;;5030030;28;20023;-76
2023/11/21 04:25:55;;;;;;;4.60;1.20;;;10.40;99.90;;;;;;5046723;28;20029;-76
2023/11/21 04:28:21;;;;;;;3.70;0.80;;;10.50;99.90;;;;;;5047138;28;20083;-76
2023/11/21 04:30:47;;;;;;;5.03;1.13;;;10.40;99.90;;;;;;5046542;28;20033;-76
2023/11/21 04:33:12;;;;;;;3.80;0.90;;;10.40;99.90;;;;;;5046385;28;20029;-76
2023/11/21 04:35:38;;;;;;;2.25;0.77;;;10.40;99.90;;;;;;5013601;28;20178;-76
2023/11/21 04:38:04;;;;;;;2.30;0.70;;;10.40;99.90;;;;;;5046480;28;20171;-75
2023/11/21 04:40:29;;;;;;;2.65;0.70;;;10.40;99.90;;;;;;5046937;28;20033;-75
2023/11/21 04:42:57;;;;;;;1.88;0.60;;;10.40;99.90;;;;;;5046285;28;20269;-77
2023/11/21 04:45:22;;;;;;;1.38;0.70;;;10.40;99.90;;;;;;5047160;28;20043;-76
2023/11/21 04:47:48;;;;;;;2.22;0.75;;;10.40;99.90;;;;;;5029859;28;20282;-75
2023/11/21 04:50:14;;;;;;;3.25;0.80;;;10.40;99.90;;;;;;5046695;28;20065;-76
2023/11/21 04:52:39;;;;;;;2.83;0.70;;;10.40;99.90;;;;;;5046906;28;20037;-75
2023/11/21 04:55:09;;;;;;;1.60;0.60;;;10.40;99.90;;;;;;5046096;28;20225;-75
2023/11/21 04:57:35;;;;;;;;;;;10.40;99.90;;;;;;5046257;28;20087;-76
2023/11/21 05:00:01;;;;;;;2.22;0.75;;;10.30;99.90;;;;;;5045625;28;19909;-75
2023/11/21 05:02:27;;;;;;;1.90;0.85;;;10.30;99.90;;;;;;5047084;28;20051;-76
2023/11/21 05:04:53;;;;;;;3.67;0.90;;;10.30;99.90;;;;;;5045948;28;20163;-75
2023/11/21 05:07:18;;;;;;;1.52;0.70;;;10.30;99.90;;;;;;5029377;28;20085;-76
2023/11/21 05:09:45;;;;;;;1.90;0.85;;;10.30;99.90;;;;;;5045792;28;20044;-76
2023/11/21 05:12:12;;;;;;;2.00;0.80;;;10.30;99.90;;;;;;5045623;28;20301;-76
2023/11/21 05:14:38;;;;;;;2.55;0.73;;;10.30;99.90;;;;;;5046209;28;20088;-76
2023/11/21 05:17:07;;;;;;;4.22;0.80;;;10.30;99.90;;;;;;5012813;28;20017;-76
2023/11/21 05:19:34;;;;;;;4.30;1.15;;;10.30;99.90;;;;;;5029626;28;20291;-76
2023/11/21 05:22:00;;;;;;;2.75;0.90;;;10.30;99.90;;;;;;5045407;28;20037;-76
2023/11/21 05:24:26;;;;;;;1.65;0.70;;;10.30;99.90;;;;;;5045419;28;20068;-76
2023/11/21 05:26:52;;;;;;;2.33;1.20;;;10.30;99.90;;;;;;5028919;28;20033;-76
2023/11/21 05:29:18;;;;;;;2.30;0.85;;;10.30;99.90;;;;;;5045382;28;20021;-76
2023/11/21 05:31:44;;;;;;;2.70;0.70;;;10.30;99.90;;;;;;5028674;28;20082;-76
2023/11/21 05:34:09;;;;;;;3.72;1.05;;;10.30;99.90;;;;;;5028503;28;20056;-76
2023/11/21 05:36:35;;;;;;;1.88;0.70;;;10.30;99.90;;;;;;5045210;28;20033;-76
2023/11/21 05:39:01;;;;;;;2.88;0.73;;;10.30;99.90;;;;;;5028749;28;20026;-76
2023/11/21 05:41:26;;;;;;;1.73;0.90;;;10.30;99.90;;;;;;5046068;28;20046;-76
2023/11/21 05:43:53;;;;;;;6.15;0.82;;;10.20;99.90;;;;;;5028650;28;20021;-76
2023/11/21 05:46:19;;;;;;;2.88;0.80;;;10.30;99.90;;;;;;5028866;28;20092;-76
2023/11/21 05:48:46;;;;;;;3.55;0.70;;;10.20;99.90;;;;;;5044810;28;20053;-76
2023/11/21 05:51:13;;;;;;;3.35;0.95;;;10.30;99.90;;;;;;5044825;28;20025;-76
2023/11/21 05:53:39;;;;;;;2.65;0.80;;;10.30;99.90;;;;;;5012757;28;20306;-76
2023/11/21 05:56:05;;;;;;;5.82;1.05;;;10.30;99.90;;;;;;5044939;28;20040;-75
2023/11/21 05:58:31;;;;;;;3.63;0.82;;;10.30;99.90;;;;;;5044738;28;20089;-75
2023/11/21 06:00:57;;;;;;;2.70;0.93;;;10.20;99.90;;;;;;5045719;28;20033;-76
2023/11/21 06:03:23;;;;;;;3.47;1.10;;;10.20;99.90;;;;;;5045694;28;20057;-76
2023/11/21 06:05:48;;;;;;;5.85;1.10;;;10.20;99.90;;;;;;5045749;28;20033;-76
2023/11/21 06:08:16;;;;;;;2.65;1.30;;;10.30;99.90;;;;;;5028416;28;20273;-76
2023/11/21 06:10:43;;;;;;;3.83;0.90;;;10.30;99.90;;;;;;5045481;28;20048;-76
2023/11/21 06:13:10;;;;;;;3.80;1.00;;;10.30;99.90;;;;;;5044644;28;20282;-76
2023/11/21 06:15:36;;;;;;;2.63;0.98;;;10.30;99.90;;;;;;5028383;28;20067;-76
2023/11/21 06:18:01;;;;;;;4.07;0.90;;;10.30;99.90;;;;;;5044539;28;20029;-76
2023/11/21 06:20:27;;;;;;;4.75;0.80;;;10.20;99.90;;;;;;5045262;28;20187;-77
2023/11/21 06:22:53;;;;;;;4.95;0.95;;;10.20;99.90;;;;;;5045437;28;20092;-78
2023/11/21 06:25:19;;;;;;;4.28;0.95;;;10.20;99.90;;;;;;5044490;28;20262;-78
2023/11/21 06:27:46;;;;;;;2.20;0.70;;;10.20;99.90;;;;;;5044003;28;20021;-78
2023/11/21 06:30:13;;;;;;;2.83;1.10;;;10.20;99.90;;;;;;5045625;28;20040;-77
2023/11/21 06:32:45;;;;;;;1.58;0.70;;;10.20;99.90;;;;;;5044401;28;20025;-78
2023/11/21 06:35:11;;;;;;;2.03;0.73;;;10.10;99.90;;;;;;5044464;28;20025;-78
2023/11/21 06:37:37;;;;;;;2.83;0.95;;;10.10;99.90;;;;;;5011714;28;20063;-78
2023/11/21 06:40:06;;;;;;;1.42;0.80;;;10.10;99.90;;;;;;5027838;28;20096;-76
2023/11/21 06:42:33;;;;;;;5.33;0.90;;;10.10;99.90;;;;;;5028252;28;20022;-76
2023/11/21 06:44:59;;;;;;;2.08;0.80;;;10.10;99.90;;;;;;5045176;28;20056;-75
2023/11/21 06:47:25;;;;;;;3.88;0.85;;;10.10;99.90;;;;;;5045153;28;20025;-77
2023/11/21 06:49:51;;;;;;;1.95;0.80;;;10.10;99.90;;;;;;5043922;28;20140;-75
2023/11/21 06:52:18;;;;;;;4.75;0.90;;;10.10;99.90;;;;;;5045263;28;20089;-75
2023/11/21 06:54:43;;;;;;;8.10;0.90;;;10.10;99.90;;;;;;5045026;28;20052;-76
2023/11/21 06:57:09;;;;;;;3.78;0.80;;;10.10;99.90;;;;;;5045087;28;20014;-76
2023/11/21 06:59:35;;;;;;;3.75;1.08;;;10.00;99.90;;;;;;5027662;28;20025;-79
2023/11/21 07:02:01;;;;;;;3.42;1.10;;;10.00;99.90;;;;;;5011247;28;20038;-77
2023/11/21 07:04:27;;;;;;;2.00;1.17;;;10.00;99.90;;;;;;5044995;28;20083;-77
2023/11/21 07:06:56;;;;;;;4.93;1.00;;;10.00;99.90;;;;;;5044231;28;20309;-77
2023/11/21 07:09:22;;;;;;;2.33;0.98;;;10.00;99.90;;;;;;5044056;28;20056;-76
2023/11/21 07:11:50;;;;;;;2.13;0.90;;;10.00;99.90;;;;;;5027705;28;20029;-76
2023/11/21 07:14:16;;;;;;;10.02;1.50;;;10.00;99.90;;;;;;5045144;28;20056;-76
2023/11/21 07:16:42;;;;;;;6.93;3.70;;;10.00;99.90;;;;;;5043741;28;20057;-76
2023/11/21 07:19:08;;;;;;;5.28;1.00;;;10.00;99.90;;;;;;5044837;28;20318;-76
2023/11/21 07:21:34;;;;;;;4.80;1.13;;;10.00;99.90;;;;;;5043815;28;20033;-76
2023/11/21 07:24:03;;;;;;;4.55;0.90;;;10.00;99.90;;;;;;5027774;28;20096;-76
2023/11/21 07:26:29;;;;;;;3.85;1.20;;;10.00;99.90;;;;;;5027414;28;20033;-76
2023/11/21 07:28:55;;;;;;;2.38;0.88;;;10.00;99.90;;;;;;5043950;28;20026;-77
2023/11/21 07:31:21;;;;;;;3.20;1.00;;;10.00;99.90;;;;;;5043858;28;20029;-76
2023/11/21 07:33:47;;;;;;;2.40;0.90;;;10.00;99.90;;;;;;5044926;28;20026;-76
2023/11/21 07:36:14;;;;;;;3.03;1.25;;;10.00;99.90;;;;;;5027187;28;20052;-76
2023/11/21 07:38:39;;;;;;;3.67;0.93;;;10.00;99.90;;;;;;5029814;28;20286;-76
2023/11/21 07:41:07;;;;;;;3.60;0.93;;;10.00;99.90;;;;;;5047108;28;20036;-75
2023/11/21 07:43:35;;;;;;;4.80;1.38;;;10.00;99.90;;;;;;5031135;28;20030;-76
2023/11/21 07:46:04;;;;;;;2.90;1.08;;;9.90;99.90;;;;;;5048277;28;20060;-76
2023/11/21 07:48:33;;;;;;;8.57;3.05;;;9.90;99.90;;;;;;5030193;28;20048;-75
2023/11/21 07:51:00;;;;;;;3.20;0.82;;;10.00;99.90;;;;;;5030637;28;20037;-76
2023/11/21 07:53:28;;;;;;;4.10;1.30;;;9.90;99.90;;;;;;5047097;28;20100;-76
2023/11/21 07:55:54;;;;;;;4.93;1.02;;;9.90;99.90;;;;;;5030937;28;20037;-76
2023/11/21 07:58:20;;;;;;;4.78;1.42;;;9.90;99.90;;;;;;5047605;28;20053;-75
2023/11/21 08:00:45;;;;;;;10.88;2.97;;;9.90;99.90;;;;;;5030256;28;20037;-78
2023/11/21 08:03:15;;;;;;;4.00;2.13;;;10.00;99.90;;;;;;5030051;28;20025;-76
2023/11/21 08:05:41;;;;;;;3.92;1.00;;;10.00;99.90;;;;;;5046778;28;20026;-75
2023/11/21 08:08:07;;;;;;;2.55;1.15;;;10.00;99.90;;;;;;5046813;28;20179;-76
2023/11/21 08:10:33;;;;;;;4.18;1.02;;;10.00;99.90;;;;;;5030341;28;20044;-76
2023/11/21 08:12:59;;;;;;;5.63;0.95;;;10.00;99.90;;;;;;5030113;28;20040;-76
2023/11/21 08:15:25;;;;;;;4.20;0.90;;;10.00;99.90;;;;;;5047605;28;20033;-76
2023/11/21 08:17:50;;;;;;;6.30;1.30;;;10.00;99.90;;;;;;5030251;28;20030;-76
2023/11/21 08:20:17;;;;;;;6.05;1.00;;;10.00;99.90;;;;;;5030011;28;20148;-76
2023/11/21 08:22:44;;;;;;;3.58;1.13;;;10.00;99.90;;;;;;5046452;28;20100;-77
2023/11/21 08:25:09;;;;;;;4.68;1.10;;;10.00;99.90;;;;;;5047045;28;20283;-76
2023/11/21 08:27:35;;;;;;;6.03;1.08;;;10.00;99.90;;;;;;5029751;28;20136;-76
2023/11/21 08:30:04;;;;;;;3.63;1.60;;;10.00;99.90;;;;;;5046894;28;20040;-76
2023/11/21 08:32:32;;;;;;;3.60;1.52;;;10.00;99.90;;;;;;5029279;28;20033;-76
2023/11/21 08:34:58;;;;;;;3.17;0.90;;;10.00;99.90;;;;;;5046293;28;20344;-76
2023/11/21 08:37:23;;;;;;;5.28;1.00;;;10.00;99.90;;;;;;5046315;28;20034;-75
2023/11/21 08:39:49;;;;;;;3.33;0.95;;;10.00;99.90;;;;;;5046080;28;20089;-77
2023/11/21 08:42:15;;;;;;;2.90;1.10;;;10.00;99.90;;;;;;5045969;28;20044;-76
2023/11/21 08:44:41;;;;;;;5.78;3.25;;;10.10;99.90;;;;;;5046894;28;20274;-76
2023/11/21 08:47:07;;;;;;;5.25;1.33;;;10.10;99.90;;;;;;5046779;28;20148;-76
2023/11/21 08:49:32;;;;;;;3.15;1.20;;;10.20;99.90;;;;;;5044849;28;20037;-76
2023/11/21 08:51:59;;;;;;;5.65;1.60;;;10.30;99.90;;;;;;5045860;28;20029;-76
2023/11/21 08:54:26;;;;;;;8.13;2.20;;;10.40;99.90;;;;;;5045444;28;20026;-77
2023/11/21 08:56:54;;;;;;;5.00;1.15;;;10.50;99.90;;;;;;5045405;28;20036;-77
2023/11/21 08:59:21;;;;;;;3.50;1.10;;;10.50;99.90;;;;;;5045192;28;20034;-77
2023/11/21 09:01:47;;;;;;;6.10;1.20;;;10.40;99.90;;;;;;5028916;28;20033;-78
2023/11/21 09:04:12;;;;;;;7.72;1.95;;;10.40;99.90;;;;;;5046120;28;20017;-77
2023/11/21 09:06:39;;;;;;;2.58;1.10;;;10.30;99.90;;;;;;5012955;28;20282;-77
2023/11/21 09:09:06;;;;;;;6.00;1.02;;;10.20;99.90;;;;;;5029336;28;20041;-77
2023/11/21 09:11:33;;;;;;;4.40;0.90;;;10.20;99.90;;;;;;5029095;28;20040;-77
2023/11/21 09:14:00;;;;;;;4.78;1.50;;;10.20;99.90;;;;;;5013046;28;20045;-77
2023/11/21 09:16:26;;;;;;;2.58;0.77;;;10.30;99.90;;;;;;5046182;28;20040;-77
2023/11/21 09:18:51;;;;;;;6.20;1.10;;;10.20;99.90;;;;;;5046080;28;20044;-77
2023/11/21 09:21:17;;;;;;;2.17;0.90;;;10.20;99.90;;;;;;5045331;28;20033;-77
2023/11/21 09:23:44;;;;;;;6.03;1.13;;;10.20;99.90;;;;;;5046335;28;20100;-77
2023/11/21 09:26:10;;;;;;;8.23;1.52;;;10.20;99.90;;;;;;5046248;28;20028;-77
2023/11/21 09:28:38;;;;;;;3.65;1.38;;;10.20;99.90;;;;;;5045027;28;20018;-77
2023/11/21 09:31:05;;;;;;;5.82;1.00;;;10.20;99.90;;;;;;5045903;28;20308;-76
2023/11/21 09:33:31;;;;;;;5.72;1.98;;;10.20;99.90;;;;;;5045985;28;20029;-77
2023/11/21 09:35:57;;;;;;;3.63;0.98;;;10.30;99.90;;;;;;5045628;28;20487;-76
2023/11/21 09:38:23;;;;;;;2.60;0.90;;;10.40;99.90;;;;;;5028471;28;20060;-76
2023/11/21 09:40:50;;;;;;;5.72;1.73;;;10.50;99.90;;;;;;5045700;28;20241;-77
2023/11/21 09:43:18;;;;;;;2.85;1.00;;;10.60;99.90;;;;;;5028680;28;20029;-76
2023/11/21 09:45:48;;;;;;;3.22;0.95;;;10.60;99.90;;;;;;5028498;28;20084;-77
2023/11/21 09:48:14;;;;;;;3.42;1.00;;;10.70;99.90;;;;;;5028489;28;20027;-76
2023/11/21 09:50:42;;;;;;;6.78;1.80;;;10.70;99.90;;;;;;5045399;28;20049;-77
2023/11/21 09:53:18;;;;;;;4.22;1.30;;;10.80;99.90;;;;;;5028180;28;20049;-77
2023/11/21 09:55:45;;;;;;;5.10;1.80;;;10.80;99.90;;;;;;5045644;28;20267;-76
2023/11/21 09:58:14;;;;;;;5.47;1.30;;;10.70;99.90;;;;;;5044675;28;20033;-77
2023/11/21 10:00:41;;;;;;;3.05;1.02;;;10.70;99.90;;;;;;5043810;28;20100;-76
2023/11/21 10:03:08;;;;;;;8.95;2.40;;;10.80;99.90;;;;;;5044191;28;20256;-77
2023/11/21 10:05:34;;;;;;;4.60;2.38;;;10.80;99.90;;;;;;5044512;28;20291;-77
2023/11/21 10:08:00;;;;;;;4.97;1.10;;;10.80;99.90;;;;;;5045538;28;20281;-77
2023/11/21 10:10:27;;;;;;;3.10;1.30;;;10.80;99.90;;;;;;5044293;28;20036;-76
2023/11/21 10:12:57;;;;;;;3.33;1.08;;;10.90;99.90;;;;;;5028058;28;20108;-77
2023/11/21 10:15:25;;;;;;;3.78;0.82;;;10.90;99.90;;;;;;5044363;28;20025;-76
2023/11/21 10:17:53;;;;;;;8.88;1.40;;;11.00;99.90;;;;;;5028274;28;20025;-76
2023/11/21 10:20:22;;;;;;;3.95;2.05;;;11.10;99.90;;;;;;5044342;28;20070;-76
2023/11/21 10:22:48;;;;;;;5.50;1.13;;;11.10;99.90;;;;;;5044030;28;20152;-75
2023/11/21 10:25:14;;;;;;;4.32;1.13;;;11.20;99.90;;;;;;5043983;28;20034;-78
2023/11/21 10:27:41;;;;;;;3.67;0.98;;;11.20;99.90;;;;;;5045184;28;20049;-76
2023/11/21 10:30:11;;;;;;;3.38;1.00;;;11.30;99.90;;;;;;5044119;28;20017;-76
2023/11/21 10:32:40;;;;;;;3.75;0.93;;;11.30;99.90;;;;;;5044901;28;20040;-76
2023/11/21 10:35:10;;;;;;;4.72;1.67;;;11.30;99.90;;;;;;5044004;28;20104;-75
2023/11/21 10:37:43;;;;;;;3.78;1.13;;;11.40;99.90;;;;;;5044199;28;20064;-75
2023/11/21 10:40:12;;;;;;;2.38;0.80;;;11.40;99.90;;;;;;5044084;28;20043;-76
2023/11/21 10:42:40;;;;;;;3.58;1.08;;;11.40;99.90;;;;;;5043799;28;20199;-75
2023/11/21 10:45:12;;;;;;;6.28;1.20;;;11.40;99.90;;;;;;5044503;28;20025;-75
2023/11/21 10:47:42;;;;;;;2.33;0.98;;;11.50;99.90;;;;;;5028236;28;20021;-78
2023/11/21 10:50:11;;;;;;;5.25;1.42;;;11.50;99.90;;;;;;5043713;28;20053;-76
2023/11/21 10:52:39;;;;;;;4.32;1.33;;;11.50;99.90;;;;;;5044997;28;20029;-77
2023/11/21 10:55:26;;;;;;;4.20;1.25;;;11.40;99.90;;;;;;5011673;28;20282;-77
2023/11/21 10:57:53;;;;;;;3.90;1.20;;;11.40;99.90;;;;;;5031396;28;20045;-77
2023/11/21 11:00:22;;;;;;;3.20;1.45;;;11.50;99.90;;;;;;5043856;28;20025;-77
2023/11/21 11:02:55;;;;;;;4.00;1.42;;;11.70;99.90;;;;;;5043910;28;20021;-77
2023/11/21 11:05:21;;;;;;;3.55;1.08;;;11.90;99.90;;;;;;5043924;28;20038;-77
2023/11/21 11:08:05;;;;;;;7.93;2.10;;;11.80;99.90;;;;;;5044910;28;20293;-77
2023/11/21 11:10:31;;;;;;;7.80;1.45;;;11.70;99.90;;;;;;5044664;28;20321;-77
2023/11/21 11:12:57;;;;;;;5.82;1.20;;;11.70;99.90;;;;;;5029060;28;20084;-77
2023/11/21 11:15:24;;;;;;;5.47;1.30;;;11.70;99.90;;;;;;5048129;28;20183;-77
2023/11/21 11:17:49;;;;;;;6.35;1.48;;;11.70;99.90;;;;;;5047289;28;20029;-77
2023/11/21 11:20:20;;;;;;;6.38;2.10;;;11.70;99.90;;;;;;5048713;28;20053;-75
2023/11/21 11:23:11;;;;;;;2.95;1.50;;;11.80;99.90;;;;;;5031653;28;20029;-75
2023/11/21 11:26:04;;;;;;;3.15;0.90;;;11.80;99.90;;;;;;5048589;28;20097;-74
2023/11/21 11:28:42;;;;;;;3.30;1.20;;;11.70;99.90;;;;;;5033351;28;20032;-76
2023/11/21 11:31:46;;;;;;;4.05;1.50;;;11.70;99.90;;;;;;5031873;28;20321;-76
2023/11/21 11:34:19;;;;;;;4.03;0.90;;;11.60;99.90;;;;;;5047876;28;20088;-78
2023/11/21 11:36:48;;;;;;;5.75;1.00;;;11.50;99.90;;;;;;5047033;28;20065;-76
2023/11/21 11:39:31;;;;;;;4.03;1.00;;;11.40;99.90;;;;;;5047192;28;20093;-76
2023/11/21 11:42:00;;;;;;;5.18;1.20;;;11.40;99.90;;;;;;5046979;28;20291;-76
2023/11/21 11:44:56;;;;;;;3.90;0.90;;;11.40;99.90;;;;;;5046996;28;20033;-77
2023/11/21 11:47:23;;;;;;;4.70;2.10;;;11.50;99.90;;;;;;5030739;28;20108;-77
2023/11/21 11:50:21;;;;;;;8.85;1.45;;;11.40;99.90;;;;;;5046791;28;20041;-75
2023/11/21 11:52:51;;;;;;;4.72;1.92;;;11.40;99.90;;;;;;5030640;28;20038;-76
2023/11/21 11:55:21;;;;;;;;;;;11.50;99.90;;;;;;5047362;28;20021;-77
2023/11/21 11:57:55;;;;;;;5.97;1.35;;;11.50;99.90;;;;;;5047983;28;20205;-75
2023/11/21 12:00:26;;;;;;;2.72;1.00;;;11.40;99.90;;;;;;5031090;28;20045;-76
2023/11/21 12:02:58;;;;;;;6.43;1.10;;;11.40;99.90;;;;;;5047665;28;20029;-76
2023/11/21 12:05:27;;;;;;;5.38;1.30;;;11.30;99.90;;;;;;5031226;28;20067;-75
2023/11/21 12:07:57;;;;;;;3.25;1.13;;;11.40;99.90;;;;;;5046214;28;20040;-75
2023/11/21 12:10:30;;;;;;;5.63;1.40;;;11.50;99.90;;;;;;5013524;28;20346;-77
2023/11/21 12:12:57;;;;;;;6.28;1.05;;;11.60;99.90;;;;;;5046469;28;20330;-77
2023/11/21 12:15:23;;;;;;;3.03;2.25;;;11.70;99.90;;;;;;5030206;28;20033;-77
2023/11/21 12:17:49;;;;;;;6.55;2.30;;;11.70;99.90;;;;;;5029921;28;20089;-76
2023/11/21 12:20:18;;;;;;;4.32;1.25;;;11.60;99.90;;;;;;5046222;28;20041;-76
2023/11/21 12:22:47;;;;;;;5.63;1.00;;;11.70;99.90;;;;;;5046323;28;20022;-76
2023/11/21 12:25:16;;;;;;;3.03;1.60;;;11.60;99.90;;;;;;5045333;28;20036;-76
2023/11/21 12:27:43;;;;;;;4.78;1.13;;;11.60;99.90;;;;;;5047193;28;20037;-76
2023/11/21 12:30:13;;;;;;;12.80;9.60;;;11.60;99.90;;;;;;5046274;28;20071;-76
2023/11/21 12:32:43;;;;;;;5.38;1.58;;;11.60;99.90;;;;;;5030357;28;20056;-76
2023/11/21 12:35:11;;;;;;;;;;;11.60;99.90;;;;;;5046131;28;20093;-77
2023/11/21 12:37:42;;;;;;;5.40;1.30;;;11.60;99.90;;;;;;5029310;28;19905;-75
2023/11/21 12:40:11;;;;;;;8.40;2.65;;;11.70;99.90;;;;;;5045807;28;20079;-77
2023/11/21 12:42:37;;;;;;;7.75;2.28;;;11.70;99.90;;;;;;5013786;28;20032;-79
2023/11/21 12:45:08;;;;;;;3.30;1.23;;;11.90;99.90;;;;;;5029405;28;20025;-77
2023/11/21 12:47:37;;;;;;;4.20;1.70;;;12.10;99.90;;;;;;5045710;28;20097;-76
2023/11/21 12:50:05;;;;;;;6.13;1.60;;;12.20;99.90;;;;;;5046172;28;20306;-75